Time;durP1;ratioP1;P1;durP2;ratioP2;P2;SDS_P1;SDS_P2;PMS_P1;PMS_P2;Temp;Humidity;BMP_temperature;BMP_pressure;BME280_temperature;BME280_humidity;BME280_pressure;Samples;Min_cycle;Max_cycle;Signal;HPM_P1;HPM_P2
2023/10/05 00:05:00;;;;;;;1.42;0.77;;;;;;;;;;6211705;28;20083;-76
2023/10/05 00:08:00;;;;;;;0.90;0.60;;;;;;;;;;6208083;28;20034;-76
2023/10/05 00:11:01;;;;;;;1.80;0.57;;;;;;;;;;6198978;28;20018;-76
2023/10/05 00:14:10;;;;;;;1.03;0.67;;;;;;;;;;6198246;28;20023;-76
2023/10/05 00:17:10;;;;;;;0.50;0.50;;;;;;;;;;6192904;28;20540;-76
2023/10/05 00:20:33;;;;;;;0.82;0.65;;;;;;;;;;6183676;28;20047;-76
2023/10/05 00:23:33;;;;;;;1.88;0.63;;;;;;;;;;6211593;28;20042;-77
2023/10/05 00:26:33;;;;;;;0.97;0.70;;;;;;;;;;6211068;28;20034;-77
2023/10/05 00:29:41;;;;;;;1.02;0.60;;;;;;;;;;6179143;28;20067;-77
2023/10/05 00:32:46;;;;;;;0.82;0.60;;;;;;;;;;6211563;28;20493;-77
2023/10/05 00:35:47;;;;;;;0.63;0.60;;;;;;;;;;6218833;28;20539;-77
2023/10/05 00:38:48;;;;;;;0.80;0.60;;;;;;;;;;6194863;28;20068;-77
2023/10/05 00:41:55;;;;;;;0.90;0.63;;;;;;;;;;6213358;28;20058;-77
2023/10/05 00:44:59;;;;;;;0.52;0.50;;;;;;;;;;6202559;28;20023;-77
2023/10/05 00:48:13;;;;;;;1.35;0.63;;;;;;;;;;6188954;28;20029;-77
2023/10/05 00:51:14;;;;;;;0.73;0.60;;;;;;;;;;6190768;28;20029;-78
2023/10/05 00:54:19;;;;;;;1.20;0.70;;;;;;;;;;6198052;28;20107;-77
2023/10/05 00:57:22;;;;;;;0.80;0.50;;;;;;;;;;6203534;28;20467;-77
2023/10/05 01:00:28;;;;;;;1.27;0.68;;;;;;;;;;6202704;28;20038;-77
2023/10/05 01:03:35;;;;;;;1.05;0.75;;;;;;;;;;6202818;28;20540;-78
2023/10/05 01:09:55;;;;;;;1.17;0.70;;;;;;;;;;6197196;28;20049;-77
2023/10/05 01:12:56;;;;;;;1.83;0.75;;;;;;;;;;6187285;28;20031;-77
2023/10/05 01:15:57;;;;;;;0.82;0.60;;;;;;;;;;6183303;28;20517;-77
2023/10/05 01:18:59;;;;;;;0.82;0.60;;;;;;;;;;6182481;28;20038;-77
2023/10/05 01:22:04;;;;;;;0.60;0.50;;;;;;;;;;6176251;28;20042;-77
2023/10/05 01:25:05;;;;;;;1.77;0.50;;;;;;;;;;6188793;28;20030;-77
2023/10/05 01:28:07;;;;;;;1.05;0.73;;;;;;;;;;6209715;28;20034;-77
2023/10/05 01:31:15;;;;;;;1.33;0.60;;;;;;;;;;6204051;28;20038;-77
2023/10/05 01:34:15;;;;;;;0.80;0.63;;;;;;;;;;6219322;28;20137;-77
2023/10/05 01:37:22;;;;;;;2.00;0.70;;;;;;;;;;6188593;28;20045;-77
2023/10/05 01:40:25;;;;;;;0.98;0.60;;;;;;;;;;6169543;28;20038;-77
2023/10/05 01:43:29;;;;;;;1.33;0.60;;;;;;;;;;6196948;28;20030;-77
2023/10/05 01:46:32;;;;;;;0.55;0.55;;;;;;;;;;6197052;28;20018;-77
2023/10/05 01:49:33;;;;;;;1.02;0.43;;;;;;;;;;6192049;28;20048;-77
2023/10/05 01:52:35;;;;;;;1.33;0.60;;;;;;;;;;6185262;28;20500;-77
2023/10/05 01:55:36;;;;;;;0.70;0.50;;;;;;;;;;6196249;28;20062;-77
2023/10/05 01:58:39;;;;;;;0.60;0.50;;;;;;;;;;6188884;28;20030;-77
2023/10/05 02:01:40;;;;;;;1.20;0.68;;;;;;;;;;6186183;28;20333;-77
2023/10/05 02:04:43;;;;;;;0.80;0.52;;;;;;;;;;6177337;28;20036;-77
2023/10/05 02:07:43;;;;;;;0.60;0.50;;;;;;;;;;6178858;28;20039;-77
2023/10/05 02:10:46;;;;;;;1.00;0.70;;;;;;;;;;6205833;28;20025;-78
2023/10/05 02:13:48;;;;;;;1.25;0.60;;;;;;;;;;6188717;28;20114;-77
2023/10/05 02:16:50;;;;;;;0.63;0.50;;;;;;;;;;6182794;28;20101;-77
2023/10/05 02:19:53;;;;;;;1.02;0.50;;;;;;;;;;6216802;28;20026;-77
2023/10/05 02:22:53;;;;;;;1.30;0.52;;;;;;;;;;6185013;28;20069;-77
2023/10/05 02:25:57;;;;;;;0.83;0.67;;;;;;;;;;6197905;28;20062;-77
2023/10/05 02:28:58;;;;;;;0.52;0.50;;;;;;;;;;6202418;28;20035;-77
2023/10/05 02:35:18;;;;;;;0.68;0.60;;;;;;;;;;6171553;28;20743;-77
2023/10/05 02:38:21;;;;;;;1.30;0.65;;;;;;;;;;6171434;28;20038;-77
2023/10/05 02:41:25;;;;;;;2.15;0.60;;;;;;;;;;6188441;28;20483;-77
2023/10/05 02:47:26;;;;;;;0.57;0.50;;;;;;;;;;6195312;28;20026;-77
2023/10/05 02:50:28;;;;;;;0.73;0.47;;;;;;;;;;6197441;28;20037;-77
2023/10/05 02:53:28;;;;;;;0.52;0.52;;;;;;;;;;6193749;28;20448;-77
2023/10/05 02:56:29;;;;;;;1.13;0.43;;;;;;;;;;6193135;28;20144;-77
2023/10/05 02:59:29;;;;;;;1.27;0.68;;;;;;;;;;6195602;28;20026;-77
2023/10/05 03:02:34;;;;;;;1.03;0.63;;;;;;;;;;6178941;28;20062;-77
2023/10/05 03:05:39;;;;;;;0.63;0.52;;;;;;;;;;6190546;28;20073;-77
2023/10/05 03:08:39;;;;;;;1.58;0.40;;;;;;;;;;6179799;28;20088;-77
2023/10/05 03:11:40;;;;;;;0.90;0.60;;;;;;;;;;6185440;28;20061;-77
2023/10/05 03:14:44;;;;;;;0.90;0.47;;;;;;;;;;6196596;28;20486;-76
2023/10/05 03:17:46;;;;;;;0.68;0.40;;;;;;;;;;6193070;28;20050;-77
2023/10/05 03:20:47;;;;;;;0.63;0.40;;;;;;;;;;6201683;28;20043;-77
2023/10/05 03:23:47;;;;;;;2.00;0.63;;;;;;;;;;6211633;28;20030;-77
2023/10/05 03:26:47;;;;;;;0.90;0.50;;;;;;;;;;6180324;28;20463;-77
2023/10/05 03:29:47;;;;;;;0.60;0.50;;;;;;;;;;6183584;28;20022;-78
2023/10/05 03:32:50;;;;;;;1.13;0.73;;;;;;;;;;6181805;28;20031;-77
2023/10/05 03:35:57;;;;;;;0.77;0.50;;;;;;;;;;6175845;28;20058;-77
2023/10/05 03:38:57;;;;;;;0.90;0.68;;;;;;;;;;6193602;28;20084;-77
2023/10/05 03:41:57;;;;;;;0.70;0.50;;;;;;;;;;6199071;28;20030;-77
2023/10/05 03:45:02;;;;;;;0.60;0.53;;;;;;;;;;6193924;28;20023;-77
2023/10/05 03:48:03;;;;;;;0.52;0.40;;;;;;;;;;6172852;28;20045;-77
2023/10/05 03:51:15;;;;;;;0.83;0.50;;;;;;;;;;6179149;28;20030;-77
2023/10/05 03:54:17;;;;;;;0.70;0.43;;;;;;;;;;6197038;28;20025;-77
2023/10/05 03:57:17;;;;;;;0.82;0.55;;;;;;;;;;6178072;28;20057;-77
2023/10/05 04:00:23;;;;;;;0.67;0.50;;;;;;;;;;6187699;28;20051;-77
2023/10/05 04:03:25;;;;;;;0.63;0.50;;;;;;;;;;6218606;28;20109;-77
2023/10/05 04:06:27;;;;;;;1.02;0.60;;;;;;;;;;6218097;28;20030;-77
2023/10/05 04:09:30;;;;;;;;;;;;;;;;;;6180661;28;20030;-77
2023/10/05 04:12:34;;;;;;;1.08;0.60;;;;;;;;;;6195927;28;19963;-77
2023/10/05 04:15:34;;;;;;;1.17;0.50;;;;;;;;;;6205753;28;20029;-77
2023/10/05 04:18:35;;;;;;;0.67;0.40;;;;;;;;;;6200050;28;20067;-77
2023/10/05 04:21:35;;;;;;;0.83;0.53;;;;;;;;;;6213625;28;20053;-77
2023/10/05 04:24:35;;;;;;;0.73;0.60;;;;;;;;;;6210759;28;20042;-77
2023/10/05 04:27:36;;;;;;;1.10;0.50;;;;;;;;;;6184123;28;20027;-77
2023/10/05 04:30:37;;;;;;;0.70;0.60;;;;;;;;;;6186562;28;20030;-77
2023/10/05 04:33:39;;;;;;;1.23;0.60;;;;;;;;;;6197338;28;20079;-77
2023/10/05 04:36:39;;;;;;;1.27;0.70;;;;;;;;;;6199462;28;20030;-76
2023/10/05 04:39:40;;;;;;;0.50;0.50;;;;;;;;;;6173452;28;20076;-77
2023/10/05 04:42:41;;;;;;;0.70;0.60;;;;;;;;;;6175840;28;20019;-77
2023/10/05 04:45:42;;;;;;;0.95;0.65;;;;;;;;;;6175616;28;20493;-78
2023/10/05 04:48:49;;;;;;;1.27;0.73;;;;;;;;;;6172447;28;20065;-77
2023/10/05 04:51:57;;;;;;;1.58;0.60;;;;;;;;;;6171110;28;20135;-77
2023/10/05 04:55:11;;;;;;;1.15;0.80;;;;;;;;;;6172472;28;20118;-77
2023/10/05 05:01:36;;;;;;;1.05;0.68;;;;;;;;;;6185323;28;20109;-77
2023/10/05 05:07:52;;;;;;;0.80;0.52;;;;;;;;;;6171299;28;20397;-78
2023/10/05 05:10:53;;;;;;;;;;;;;;;;;;6175418;28;20042;-79
2023/10/05 05:13:54;;;;;;;0.60;0.53;;;;;;;;;;6156924;28;19941;-79
2023/10/05 05:16:58;;;;;;;0.82;0.60;;;;;;;;;;6176399;28;20454;-79
2023/10/05 05:19:58;;;;;;;0.60;0.45;;;;;;;;;;6166923;28;20015;-79
2023/10/05 05:22:58;;;;;;;0.80;0.60;;;;;;;;;;6167731;28;20039;-79
2023/10/05 05:25:59;;;;;;;0.77;0.63;;;;;;;;;;6168999;28;20029;-79
2023/10/05 05:28:59;;;;;;;0.93;0.53;;;;;;;;;;6160556;28;20376;-79
2023/10/05 05:32:06;;;;;;;0.50;0.47;;;;;;;;;;6167145;28;20054;-78
2023/10/05 05:35:08;;;;;;;1.00;0.73;;;;;;;;;;6168428;28;20033;-79
2023/10/05 05:38:11;;;;;;;1.00;0.77;;;;;;;;;;6166030;28;20023;-79
2023/10/05 05:41:11;;;;;;;2.30;0.70;;;;;;;;;;6168580;28;20035;-79
2023/10/05 05:44:20;;;;;;;1.10;0.70;;;;;;;;;;6165376;28;20177;-79
2023/10/05 05:47:20;;;;;;;0.88;0.60;;;;;;;;;;6170604;28;20486;-79
2023/10/05 05:50:23;;;;;;;0.60;0.60;;;;;;;;;;6166529;28;20039;-80
2023/10/05 05:53:23;;;;;;;1.38;0.70;;;;;;;;;;6168826;28;20043;-78
2023/10/05 05:56:28;;;;;;;0.93;0.57;;;;;;;;;;6174727;28;20116;-79
2023/10/05 05:59:28;;;;;;;0.70;0.60;;;;;;;;;;6186246;28;20038;-79
2023/10/05 06:02:29;;;;;;;2.37;1.10;;;;;;;;;;6196717;28;20399;-77
2023/10/05 06:05:29;;;;;;;2.17;1.10;;;;;;;;;;6161479;28;20034;-77
2023/10/05 06:08:29;;;;;;;1.77;0.80;;;;;;;;;;6176212;28;20030;-78
2023/10/05 06:11:29;;;;;;;0.97;0.70;;;;;;;;;;6176879;28;20110;-78
2023/10/05 06:14:34;;;;;;;0.90;0.60;;;;;;;;;;6179481;28;20383;-77
2023/10/05 06:17:35;;;;;;;2.15;0.70;;;;;;;;;;6179104;28;20023;-77
2023/10/05 06:20:35;;;;;;;0.80;0.50;;;;;;;;;;6193906;28;20122;-77
2023/10/05 06:23:36;;;;;;;1.00;0.60;;;;;;;;;;6192244;28;20490;-78
2023/10/05 06:26:37;;;;;;;0.90;0.50;;;;;;;;;;6189422;28;20037;-78
2023/10/05 06:29:39;;;;;;;1.30;0.70;;;;;;;;;;6189285;28;20051;-78
2023/10/05 06:32:40;;;;;;;0.90;0.67;;;;;;;;;;6181994;28;20030;-78
2023/10/05 06:35:40;;;;;;;1.17;0.70;;;;;;;;;;6177352;28;20524;-78
2023/10/05 06:38:40;;;;;;;0.50;0.50;;;;;;;;;;6195742;28;20288;-78
2023/10/05 06:41:41;;;;;;;1.07;0.70;;;;;;;;;;6173290;28;20034;-78
2023/10/05 06:44:41;;;;;;;0.90;0.70;;;;;;;;;;6195980;28;20018;-78
2023/10/05 06:47:42;;;;;;;1.37;0.87;;;;;;;;;;6195521;28;20487;-78
2023/10/05 06:50:43;;;;;;;1.77;0.90;;;;;;;;;;6195358;28;20037;-78
2023/10/05 06:53:43;;;;;;;1.08;0.80;;;;;;;;;;6183165;28;20542;-78
2023/10/05 06:56:48;;;;;;;1.00;0.70;;;;;;;;;;6173779;28;20058;-78
2023/10/05 06:59:48;;;;;;;0.75;0.55;;;;;;;;;;6153673;28;20426;-78
2023/10/05 07:02:50;;;;;;;1.20;0.80;;;;;;;;;;6189688;28;20061;-78
2023/10/05 07:05:50;;;;;;;0.82;0.50;;;;;;;;;;6195149;28;20022;-78
2023/10/05 07:08:52;;;;;;;1.27;0.63;;;;;;;;;;6167154;28;20541;-78
2023/10/05 07:11:52;;;;;;;1.60;0.60;;;;;;;;;;6171151;28;20023;-78
2023/10/05 07:14:53;;;;;;;0.70;0.70;;;;;;;;;;6173842;28;20058;-78
2023/10/05 07:17:53;;;;;;;1.70;0.77;;;;;;;;;;6171635;28;20030;-78
2023/10/05 07:20:53;;;;;;;0.70;0.53;;;;;;;;;;6160044;28;20055;-78
2023/10/05 07:23:53;;;;;;;1.07;0.70;;;;;;;;;;6157652;28;20065;-78
2023/10/05 07:26:53;;;;;;;1.33;0.67;;;;;;;;;;6155522;28;20038;-78
2023/10/05 07:29:54;;;;;;;0.80;0.60;;;;;;;;;;6159195;28;20031;-78
2023/10/05 07:32:54;;;;;;;1.00;0.57;;;;;;;;;;6161986;28;20072;-78
2023/10/05 07:35:54;;;;;;;1.20;0.70;;;;;;;;;;6163091;28;20092;-78
2023/10/05 07:38:54;;;;;;;0.60;0.60;;;;;;;;;;6155143;28;20028;-78
2023/10/05 07:41:54;;;;;;;0.87;0.70;;;;;;;;;;6162156;28;20035;-78
2023/10/05 07:44:56;;;;;;;1.23;0.70;;;;;;;;;;6146734;28;20035;-78
2023/10/05 07:47:58;;;;;;;0.73;0.60;;;;;;;;;;6159819;28;20034;-78
2023/10/05 07:50:59;;;;;;;1.80;0.65;;;;;;;;;;6168137;28;20034;-78
2023/10/05 07:53:59;;;;;;;1.23;0.80;;;;;;;;;;6154383;28;20380;-78
2023/10/05 07:57:02;;;;;;;0.90;0.70;;;;;;;;;;6150942;28;20019;-78
2023/10/05 08:00:05;;;;;;;1.13;0.80;;;;;;;;;;6150758;29;20069;-78
2023/10/05 08:03:05;;;;;;;0.70;0.52;;;;;;;;;;6169580;28;20392;-78
2023/10/05 08:06:09;;;;;;;1.27;0.70;;;;;;;;;;6166903;28;20039;-80
2023/10/05 08:09:14;;;;;;;0.88;0.68;;;;;;;;;;6169355;28;20027;-80
2023/10/05 08:12:15;;;;;;;2.53;0.80;;;;;;;;;;6170229;28;20113;-80
2023/10/05 08:15:18;;;;;;;1.43;0.80;;;;;;;;;;6170399;28;20517;-78
2023/10/05 08:18:19;;;;;;;1.20;0.60;;;;;;;;;;6170245;28;20486;-78
2023/10/05 08:21:19;;;;;;;1.20;0.80;;;;;;;;;;6184890;28;20047;-73
2023/10/05 08:24:20;;;;;;;1.30;0.70;;;;;;;;;;6192689;28;20277;-72
2023/10/05 08:27:22;;;;;;;1.23;1.00;;;;;;;;;;6186704;28;20468;-72
2023/10/05 08:30:25;;;;;;;1.50;1.08;;;;;;;;;;6185876;28;20039;-72
2023/10/05 08:33:26;;;;;;;2.47;1.10;;;;;;;;;;6182994;28;20026;-72
2023/10/05 08:36:26;;;;;;;;;;;;;;;;;;6187882;28;20035;-72
2023/10/05 08:39:26;;;;;;;1.67;1.00;;;;;;;;;;6180041;28;20130;-71
2023/10/05 08:42:27;;;;;;;1.47;0.87;;;;;;;;;;6194008;28;20030;-71
2023/10/05 08:45:28;;;;;;;1.05;0.80;;;;;;;;;;6184562;28;20774;-71
2023/10/05 08:48:28;;;;;;;1.17;0.80;;;;;;;;;;6196679;28;20038;-71
2023/10/05 08:51:29;;;;;;;1.45;1.02;;;;;;;;;;6184978;28;20477;-71
2023/10/05 08:54:33;;;;;;;1.25;0.88;;;;;;;;;;6178708;28;20088;-72
2023/10/05 08:57:33;;;;;;;1.23;0.90;;;;;;;;;;6189176;28;20069;-71
2023/10/05 09:00:39;;;;;;;1.37;0.93;;;;;;;;;;6196513;28;20030;-71
2023/10/05 09:03:39;;;;;;;2.13;1.10;;;;;;;;;;6185416;28;20439;-71
2023/10/05 09:06:55;;;;;;;2.43;1.00;;;;;;;;;;6188824;28;20030;-70
2023/10/05 09:09:55;;;;;;;1.90;1.05;;;;;;;;;;6187369;28;20117;-70
2023/10/05 09:12:58;;;;;;;2.03;0.80;;;;;;;;;;6186993;28;20394;-71
2023/10/05 09:15:59;;;;;;;1.70;0.80;;;;;;;;;;6173858;28;20144;-71
2023/10/05 09:19:00;;;;;;;;;;;;;;;;;;6182348;28;20493;-75
2023/10/05 09:25:08;;;;;;;2.78;0.80;;;;;;;;;;6194125;28;20034;-80
2023/10/05 09:28:19;;;;;;;1.80;1.02;;;;;;;;;;6176531;28;20035;-80
2023/10/05 09:31:32;;;;;;;1.58;0.95;;;;;;;;;;6179995;28;20073;-81
2023/10/05 09:34:37;;;;;;;1.67;1.30;;;;;;;;;;6176746;28;20038;-81
2023/10/05 09:37:39;;;;;;;1.20;1.05;;;;;;;;;;6184186;28;20038;-81
2023/10/05 09:40:40;;;;;;;1.30;1.00;;;;;;;;;;6193665;28;20069;-81
2023/10/05 09:43:42;;;;;;;0.80;0.77;;;;;;;;;;6175291;28;20031;-80
2023/10/05 09:46:43;;;;;;;2.47;0.90;;;;;;;;;;6180957;28;20030;-81
2023/10/05 09:49:45;;;;;;;;;;;;;;;;;;6178593;28;20065;-82
2023/10/05 09:52:46;;;;;;;0.88;0.73;;;;;;;;;;6175463;28;20004;-80
2023/10/05 09:55:46;;;;;;;;;;;;;;;;;;6185291;28;20121;-80
2023/10/05 09:58:46;;;;;;;1.27;0.63;;;;;;;;;;6172889;28;20290;-80
2023/10/05 10:01:48;;;;;;;1.23;0.70;;;;;;;;;;6182661;28;20033;-80
2023/10/05 10:04:49;;;;;;;0.73;0.68;;;;;;;;;;6193524;28;20096;-80
2023/10/05 10:07:50;;;;;;;0.80;0.70;;;;;;;;;;6212306;28;20032;-81
2023/10/05 10:11:01;;;;;;;;;;;;;;;;;;6203740;28;20038;-81
2023/10/05 10:14:09;;;;;;;1.00;0.47;;;;;;;;;;6192629;28;19910;-81
2023/10/05 10:17:24;;;;;;;1.23;0.70;;;;;;;;;;6193977;28;20502;-80
2023/10/05 10:20:35;;;;;;;1.15;0.60;;;;;;;;;;6195653;28;20542;-81
2023/10/05 10:23:36;;;;;;;0.80;0.55;;;;;;;;;;6188267;28;20030;-81
2023/10/05 10:26:42;;;;;;;0.90;0.70;;;;;;;;;;6193916;28;20038;-80
2023/10/05 10:29:45;;;;;;;1.10;0.70;;;;;;;;;;6196273;28;20579;-80
2023/10/05 10:32:49;;;;;;;0.75;0.60;;;;;;;;;;6186591;28;20027;-79
2023/10/05 10:35:49;;;;;;;0.88;0.65;;;;;;;;;;6186068;28;20489;-80
2023/10/05 10:38:50;;;;;;;;;;;;;;;;;;6190620;28;20035;-80
2023/10/05 10:42:18;;;;;;;0.68;0.57;;;;;;;;;;6184167;28;19913;-80
2023/10/05 10:45:28;;;;;;;0.90;0.70;;;;;;;;;;6190015;28;20097;-81
2023/10/05 10:48:36;;;;;;;0.73;0.65;;;;;;;;;;6196150;28;20119;-77
2023/10/05 10:51:38;;;;;;;2.55;1.83;;;;;;;;;;6192296;28;20074;-78
2023/10/05 10:54:41;;;;;;;2.17;1.40;;;;;;;;;;6171777;28;20077;-74
2023/10/05 10:57:46;;;;;;;1.25;1.10;;;;;;;;;;6179563;28;20114;-74
2023/10/05 11:00:57;;;;;;;1.92;0.98;;;;;;;;;;6191274;28;20040;-74
2023/10/05 11:04:04;;;;;;;0.90;0.70;;;;;;;;;;6187441;28;20039;-73
2023/10/05 11:07:07;;;;;;;2.83;1.00;;;;;;;;;;6170207;28;20378;-78
2023/10/05 11:10:20;;;;;;;1.13;0.88;;;;;;;;;;6170536;28;20383;-79
2023/10/05 11:13:21;;;;;;;2.08;1.10;;;;;;;;;;6185716;28;20462;-79
2023/10/05 11:16:26;;;;;;;;;;;;;;;;;;6195666;28;20022;-79
2023/10/05 11:19:39;;;;;;;1.00;0.70;;;;;;;;;;6174506;28;19945;-79
2023/10/05 11:22:42;;;;;;;1.02;0.70;;;;;;;;;;6173484;28;20062;-79
2023/10/05 11:25:44;;;;;;;1.55;0.77;;;;;;;;;;6179712;28;20131;-79
2023/10/05 11:28:51;;;;;;;0.85;0.68;;;;;;;;;;6174507;28;20039;-79
2023/10/05 11:31:52;;;;;;;1.52;0.90;;;;;;;;;;6179304;28;20098;-78
2023/10/05 11:34:55;;;;;;;1.60;1.15;;;;;;;;;;6186007;28;20026;-78
2023/10/05 11:37:59;;;;;;;2.50;0.90;;;;;;;;;;6199962;28;20065;-78
2023/10/05 11:40:59;;;;;;;2.28;0.90;;;;;;;;;;6197052;28;20107;-79
2023/10/05 11:43:59;;;;;;;;;;;;;;;;;;6179329;28;20023;-79
2023/10/05 11:47:00;;;;;;;1.17;0.63;;;;;;;;;;6179941;28;20329;-78
2023/10/05 11:50:06;;;;;;;0.87;0.70;;;;;;;;;;6199407;28;20467;-79
2023/10/05 11:53:12;;;;;;;0.93;0.65;;;;;;;;;;6189531;28;20107;-79
2023/10/05 11:56:17;;;;;;;1.42;0.77;;;;;;;;;;6201653;28;20022;-79
2023/10/05 11:59:26;;;;;;;1.27;0.60;;;;;;;;;;6173423;28;20022;-79
2023/10/05 12:02:26;;;;;;;1.48;0.88;;;;;;;;;;6202868;28;20047;-80
2023/10/05 12:05:30;;;;;;;;;;;;;;;;;;6167618;28;20034;-80
2023/10/05 12:08:30;;;;;;;0.93;0.68;;;;;;;;;;6188631;28;19979;-79
2023/10/05 12:11:30;;;;;;;;;;;;;;;;;;6202681;28;20030;-79
2023/10/05 12:14:31;;;;;;;1.15;0.65;;;;;;;;;;6193467;28;19907;-79
2023/10/05 12:17:31;;;;;;;1.00;0.80;;;;;;;;;;6181457;28;20033;-71
2023/10/05 12:20:31;;;;;;;1.30;0.83;;;;;;;;;;6184307;28;20082;-70
2023/10/05 12:23:33;;;;;;;1.90;0.80;;;;;;;;;;6197480;28;20273;-70
2023/10/05 12:26:34;;;;;;;1.00;0.90;;;;;;;;;;6194880;28;20035;-69
2023/10/05 12:29:34;;;;;;;1.10;0.70;;;;;;;;;;6197260;28;20035;-69
2023/10/05 12:32:35;;;;;;;1.20;0.87;;;;;;;;;;6193456;28;20539;-69
2023/10/05 12:35:38;;;;;;;1.20;0.80;;;;;;;;;;6188525;28;20338;-69
2023/10/05 12:38:39;;;;;;;1.10;0.70;;;;;;;;;;6191963;28;20419;-67
2023/10/05 12:41:42;;;;;;;1.08;0.70;;;;;;;;;;6265917;28;20028;-67
2023/10/05 12:44:43;;;;;;;2.30;0.90;;;;;;;;;;6225152;28;20457;-69
2023/10/05 12:47:44;;;;;;;1.30;0.93;;;;;;;;;;6204104;28;20037;-68
2023/10/05 12:50:45;;;;;;;1.48;0.90;;;;;;;;;;6191098;28;20114;-68
2023/10/05 12:53:47;;;;;;;1.27;0.80;;;;;;;;;;6187457;28;20019;-67
2023/10/05 12:56:51;;;;;;;0.73;0.65;;;;;;;;;;6195542;28;20039;-67
2023/10/05 12:59:51;;;;;;;0.70;0.65;;;;;;;;;;6195063;28;20471;-67
2023/10/05 13:02:52;;;;;;;0.90;0.70;;;;;;;;;;6192141;28;20022;-67
2023/10/05 13:05:53;;;;;;;1.23;0.88;;;;;;;;;;6199121;28;20041;-67
2023/10/05 13:08:56;;;;;;;1.80;1.02;;;;;;;;;;6180061;28;20076;-68
2023/10/05 13:11:58;;;;;;;1.15;0.93;;;;;;;;;;6199438;28;20521;-68
2023/10/05 13:15:03;;;;;;;1.48;0.98;;;;;;;;;;6191943;28;20107;-67
2023/10/05 13:18:19;;;;;;;1.33;0.90;;;;;;;;;;6194264;28;20022;-68
2023/10/05 13:21:19;;;;;;;1.70;0.98;;;;;;;;;;6185244;28;20051;-81
2023/10/05 13:24:20;;;;;;;1.10;1.00;;;;;;;;;;6194150;28;20514;-80
2023/10/05 13:27:20;;;;;;;1.05;0.85;;;;;;;;;;6195943;28;20054;-80
2023/10/05 13:30:27;;;;;;;1.20;0.90;;;;;;;;;;6206173;28;20025;-79
2023/10/05 13:33:34;;;;;;;1.35;1.10;;;;;;;;;;6207185;28;20080;-80
2023/10/05 13:36:34;;;;;;;0.98;0.80;;;;;;;;;;6183581;28;20031;-79
2023/10/05 13:39:34;;;;;;;1.80;1.20;;;;;;;;;;6159425;28;20383;-80
2023/10/05 13:42:35;;;;;;;1.40;1.10;;;;;;;;;;6173387;28;20266;-79
2023/10/05 13:45:36;;;;;;;1.02;0.82;;;;;;;;;;6196581;28;20525;-80
2023/10/05 13:48:39;;;;;;;0.80;0.80;;;;;;;;;;6189572;28;20046;-80
2023/10/05 13:51:40;;;;;;;0.90;0.70;;;;;;;;;;6177399;28;20027;-79
2023/10/05 13:54:40;;;;;;;2.50;1.07;;;;;;;;;;6179251;28;20023;-79
2023/10/05 13:57:40;;;;;;;1.52;0.90;;;;;;;;;;6173569;28;20022;-79
2023/10/05 14:00:41;;;;;;;1.80;1.00;;;;;;;;;;6189684;28;20056;-80
2023/10/05 14:03:45;;;;;;;1.33;0.80;;;;;;;;;;6185680;28;20323;-81
2023/10/05 14:06:45;;;;;;;1.70;0.90;;;;;;;;;;6184587;28;20125;-81
2023/10/05 14:09:47;;;;;;;1.13;0.88;;;;;;;;;;6175807;28;20445;-81
2023/10/05 14:12:48;;;;;;;1.42;0.90;;;;;;;;;;6192802;28;20524;-79
2023/10/05 14:15:49;;;;;;;2.58;0.90;;;;;;;;;;6192738;28;20520;-77
2023/10/05 14:18:49;;;;;;;1.63;1.00;;;;;;;;;;6189243;28;20058;-77
2023/10/05 14:21:52;;;;;;;1.03;0.93;;;;;;;;;;6187718;28;20390;-79
2023/10/05 14:24:53;;;;;;;1.35;1.00;;;;;;;;;;6189455;28;20027;-77
2023/10/05 14:27:53;;;;;;;1.88;0.95;;;;;;;;;;6172064;28;20027;-78
2023/10/05 14:30:57;;;;;;;1.20;0.90;;;;;;;;;;6185418;28;20075;-77
2023/10/05 14:34:00;;;;;;;1.63;1.00;;;;;;;;;;6171991;28;20038;-79
2023/10/05 14:37:04;;;;;;;1.02;0.80;;;;;;;;;;6171021;28;20027;-79
2023/10/05 14:40:05;;;;;;;0.77;0.70;;;;;;;;;;6172319;28;20416;-80
2023/10/05 14:43:06;;;;;;;2.15;0.88;;;;;;;;;;6193049;28;20030;-79
2023/10/05 14:46:08;;;;;;;2.08;0.90;;;;;;;;;;6195856;28;20118;-79
2023/10/05 14:49:08;;;;;;;1.95;1.02;;;;;;;;;;6195782;28;20065;-79
2023/10/05 14:52:08;;;;;;;1.63;0.90;;;;;;;;;;6195149;28;20496;-79
2023/10/05 14:55:09;;;;;;;1.40;0.80;;;;;;;;;;6173950;28;20806;-79
2023/10/05 14:58:09;;;;;;;1.25;0.90;;;;;;;;;;6177188;28;20033;-79
2023/10/05 15:01:10;;;;;;;1.33;0.87;;;;;;;;;;6195295;28;20360;-79
2023/10/05 15:04:11;;;;;;;1.50;1.00;;;;;;;;;;6195118;28;20117;-79
2023/10/05 15:07:11;;;;;;;1.83;0.90;;;;;;;;;;6192192;28;20026;-79
2023/10/05 15:10:17;;;;;;;2.10;0.90;;;;;;;;;;6195834;28;20490;-79
2023/10/05 15:13:18;;;;;;;1.45;0.80;;;;;;;;;;6173511;28;20030;-79
2023/10/05 15:16:18;;;;;;;1.17;1.08;;;;;;;;;;6181026;28;20462;-79
2023/10/05 15:19:19;;;;;;;2.90;2.60;;;;;;;;;;6194078;28;20026;-79
2023/10/05 15:22:21;;;;;;;2.10;1.77;;;;;;;;;;6183368;28;20484;-79
2023/10/05 15:25:21;;;;;;;1.60;1.50;;;;;;;;;;6170463;28;20464;-79
2023/10/05 15:28:22;;;;;;;1.67;1.08;;;;;;;;;;6171278;28;20031;-79
2023/10/05 15:31:23;;;;;;;2.70;0.77;;;;;;;;;;6184896;28;20487;-80
2023/10/05 15:34:25;;;;;;;1.08;0.80;;;;;;;;;;6189602;28;20022;-79
2023/10/05 15:37:25;;;;;;;1.23;0.90;;;;;;;;;;6194068;28;20029;-80
2023/10/05 15:40:30;;;;;;;1.77;1.00;;;;;;;;;;6193942;28;20030;-80
2023/10/05 15:43:31;;;;;;;2.63;0.90;;;;;;;;;;6195072;28;20509;-79
2023/10/05 15:46:31;;;;;;;1.50;1.00;;;;;;;;;;6195050;28;20026;-79
2023/10/05 15:49:31;;;;;;;1.10;0.87;;;;;;;;;;6185499;28;20468;-79
2023/10/05 15:52:32;;;;;;;1.23;0.97;;;;;;;;;;6187335;28;20281;-79
2023/10/05 15:55:33;;;;;;;2.33;1.00;;;;;;;;;;6194905;28;20406;-78
2023/10/05 15:58:35;;;;;;;0.95;0.82;;;;;;;;;;6194819;28;20033;-79
2023/10/05 16:01:35;;;;;;;1.40;1.02;;;;;;;;;;6191690;28;20060;-80
2023/10/05 16:04:36;;;;;;;1.23;1.00;;;;;;;;;;6168543;28;20413;-79
2023/10/05 16:07:36;;;;;;;1.55;0.90;;;;;;;;;;6175095;28;20058;-81
2023/10/05 16:10:40;;;;;;;0.93;0.83;;;;;;;;;;6178078;28;20399;-79
2023/10/05 16:13:40;;;;;;;1.25;0.90;;;;;;;;;;6181234;28;20361;-80
2023/10/05 16:16:40;;;;;;;1.13;0.90;;;;;;;;;;6174449;28;20027;-79
2023/10/05 16:19:40;;;;;;;;;;;;;;;;;;6192083;28;20278;-80
2023/10/05 16:22:41;;;;;;;0.80;0.63;;;;;;;;;;6181063;28;20375;-80
2023/10/05 16:25:41;;;;;;;2.20;0.98;;;;;;;;;;6188413;28;20049;-79
2023/10/05 16:28:41;;;;;;;;;;;;;;;;;;6187248;28;20483;-80
2023/10/05 16:31:43;;;;;;;1.10;0.63;;;;;;;;;;6188327;28;20032;-80
2023/10/05 16:34:43;;;;;;;1.10;1.00;;;;;;;;;;6174515;28;20031;-80
2023/10/05 16:37:43;;;;;;;;;;;;;;;;;;6184430;28;20083;-80
2023/10/05 16:40:44;;;;;;;3.40;2.80;;;;;;;;;;6186217;28;19910;-79
2023/10/05 16:43:45;;;;;;;;;;;;;;;;;;6186807;28;20035;-80
2023/10/05 16:46:45;;;;;;;1.57;1.23;;;;;;;;;;6175998;28;20301;-80
2023/10/05 16:49:45;;;;;;;;;;;;;;;;;;6195725;28;20109;-80
2023/10/05 16:52:46;;;;;;;1.15;0.93;;;;;;;;;;6197131;28;19914;-80
2023/10/05 16:55:48;;;;;;;;;;;;;;;;;;6187393;28;20060;-80
2023/10/05 16:58:49;;;;;;;1.02;0.80;;;;;;;;;;6186635;28;20397;-79
2023/10/05 17:01:50;;;;;;;1.48;0.98;;;;;;;;;;6185689;28;20028;-80
2023/10/05 17:04:50;;;;;;;;;;;;;;;;;;6179109;28;20018;-80
2023/10/05 17:07:51;;;;;;;1.80;1.00;;;;;;;;;;6192926;28;20307;-80
2023/10/05 17:10:51;;;;;;;;;;;;;;;;;;6186125;28;20019;-80
2023/10/05 17:13:51;;;;;;;1.60;0.77;;;;;;;;;;6175451;28;19917;-79
2023/10/05 17:16:52;;;;;;;;;;;;;;;;;;6185532;28;20054;-80
2023/10/05 17:19:52;;;;;;;1.60;0.93;;;;;;;;;;6178330;28;20267;-81
2023/10/05 17:22:55;;;;;;;;;;;;;;;;;;6178996;28;20133;-81
2023/10/05 17:25:55;;;;;;;1.35;0.80;;;;;;;;;;6174893;28;19974;-80
2023/10/05 17:28:55;;;;;;;;;;;;;;;;;;6169091;28;20068;-77
2023/10/05 17:31:55;;;;;;;2.50;1.10;;;;;;;;;;6173853;28;19913;-79
2023/10/05 17:34:56;;;;;;;;;;;;;;;;;;6170302;28;20340;-80
2023/10/05 17:37:56;;;;;;;1.10;0.90;;;;;;;;;;6165145;28;20009;-78
2023/10/05 17:40:56;;;;;;;;;;;;;;;;;;6181625;28;20041;-78
2023/10/05 17:43:56;;;;;;;1.52;0.80;;;;;;;;;;6175412;28;19917;-78
2023/10/05 17:46:56;;;;;;;;;;;;;;;;;;6177559;28;20502;-79
2023/10/05 17:49:59;;;;;;;1.33;0.95;;;;;;;;;;6173615;28;20286;-78
2023/10/05 17:53:00;;;;;;;1.55;0.80;;;;;;;;;;6174336;28;20519;-79
2023/10/05 17:56:00;;;;;;;;;;;;;;;;;;6174598;28;20105;-78
2023/10/05 17:59:01;;;;;;;1.40;0.83;;;;;;;;;;6173718;28;19925;-71
2023/10/05 18:02:01;;;;;;;;;;;;;;;;;;6174906;28;20034;-80
2023/10/05 18:05:05;;;;;;;1.05;0.70;;;;;;;;;;6177663;28;19984;-84
2023/10/05 18:08:06;;;;;;;2.30;0.85;;;;;;;;;;6178368;28;20051;-83
2023/10/05 18:11:07;;;;;;;1.45;1.00;;;;;;;;;;6177345;28;20035;-82
2023/10/05 18:14:07;;;;;;;;;;;;;;;;;;6169395;28;20300;-82
2023/10/05 18:17:08;;;;;;;0.82;0.70;;;;;;;;;;6177564;28;19914;-82
2023/10/05 18:20:11;;;;;;;;;;;;;;;;;;6178258;28;20030;-83
2023/10/05 18:23:13;;;;;;;1.77;0.80;;;;;;;;;;6175406;28;19922;-82
2023/10/05 18:26:14;;;;;;;1.38;0.80;;;;;;;;;;6172346;28;20069;-83
2023/10/05 18:29:14;;;;;;;;;;;;;;;;;;6172850;28;20043;-83
2023/10/05 18:32:15;;;;;;;1.40;0.80;;;;;;;;;;6211398;28;20286;-82
2023/10/05 18:35:15;;;;;;;;;;;;;;;;;;6177610;28;20037;-81
2023/10/05 18:38:15;;;;;;;1.48;0.93;;;;;;;;;;6172842;28;19937;-82
2023/10/05 18:41:15;;;;;;;;;;;;;;;;;;6170942;28;20037;-83
2023/10/05 18:44:15;;;;;;;1.27;0.63;;;;;;;;;;6177826;28;19914;-84
2023/10/05 18:47:15;;;;;;;;;;;;;;;;;;6178656;28;20110;-83